createdAt,value
2022-11-19T00:10:10.308Z,14.00
2022-11-19T00:20:17.604Z,14.00
2022-11-19T00:30:46.472Z,17.00
2022-11-19T00:40:49.060Z,12.80
2022-11-19T00:50:54.694Z,10.30
2022-11-19T01:01:00.430Z,10.60
2022-11-19T01:11:11.463Z,9.50
2022-11-19T01:21:18.323Z,10.90
2022-11-19T01:31:26.343Z,9.10
2022-11-19T01:41:33.915Z,8.90
2022-11-19T01:51:43.501Z,9.70
2022-11-19T02:01:49.313Z,10.00
2022-11-19T02:12:15.888Z,8.50
2022-11-19T02:22:44.795Z,8.10
2022-11-19T02:33:08.984Z,9.70
2022-11-19T02:43:18.385Z,7.60
2022-11-19T02:53:24.555Z,7.40
2022-11-19T03:03:49.508Z,9.30
2022-11-19T03:14:18.539Z,10.20
2022-11-19T03:24:29.845Z,7.60
2022-11-19T03:34:37.217Z,8.30
2022-11-19T03:44:48.836Z,8.80
2022-11-19T03:54:54.611Z,9.70
2022-11-19T04:15:04.570Z,10.60
2022-11-19T04:25:11.611Z,10.50
2022-11-19T04:35:21.485Z,10.80
2022-11-19T04:45:27.060Z,9.60
2022-11-19T04:55:32.568Z,11.90
2022-11-19T05:05:38.237Z,12.40
2022-11-19T05:15:43.777Z,11.80
2022-11-19T05:25:49.429Z,11.90
2022-11-19T05:46:02.004Z,12.00
2022-11-19T05:56:08.181Z,13.90
2022-11-19T06:06:13.757Z,14.50
2022-11-19T06:16:19.521Z,14.70
2022-11-19T06:36:35.963Z,14.10
2022-11-19T06:46:44.845Z,14.30
2022-11-19T06:56:50.573Z,14.60
2022-11-19T07:17:00.444Z,11.80
2022-11-19T07:27:06.102Z,10.30
2022-11-19T07:37:11.758Z,15.50
2022-11-19T07:47:17.316Z,10.90
2022-11-19T07:57:29.719Z,12.10
2022-11-19T08:07:37.855Z,14.20
2022-11-19T08:18:00.819Z,11.10
2022-11-19T08:28:06.765Z,11.40
2022-11-19T08:38:12.770Z,8.60
2022-11-19T08:48:18.319Z,7.30
2022-11-19T08:58:24.328Z,6.30
2022-11-19T09:08:29.955Z,4.80
2022-11-19T09:18:39.015Z,5.40
2022-11-19T09:28:45.249Z,4.10
2022-11-19T09:38:51.322Z,6.10
2022-11-19T09:49:02.069Z,6.40
2022-11-19T09:59:27.099Z,6.30
2022-11-19T10:09:43.588Z,5.50
2022-11-19T10:20:04.832Z,5.60
2022-11-19T10:30:17.461Z,5.80
2022-11-19T10:40:26.133Z,7.40
2022-11-19T10:50:31.799Z,6.20
2022-11-19T11:00:39.178Z,7.90
2022-11-19T11:10:47.206Z,9.20
2022-11-19T11:20:53.712Z,10.40
2022-11-19T11:51:39.564Z,10.50
2022-11-19T12:01:55.787Z,9.80
2022-11-19T12:12:08.977Z,8.50
2022-11-19T12:22:24.133Z,9.10
2022-11-19T12:32:51.861Z,9.00
2022-11-19T12:43:04.868Z,9.60
2022-11-19T12:53:34.529Z,8.40
2022-11-19T13:04:00.745Z,7.60
2022-11-19T13:14:13.699Z,8.70
2022-11-19T13:24:30.328Z,7.80
2022-11-19T13:34:42.010Z,8.10
2022-11-19T13:44:47.816Z,8.00
2022-11-19T13:54:53.937Z,9.30
2022-11-19T14:05:38.963Z,16.00
2022-11-19T14:16:16.230Z,10.30
2022-11-19T14:26:52.866Z,8.50
2022-11-19T14:37:01.807Z,11.20
2022-11-19T14:47:35.226Z,12.40
2022-11-19T14:57:43.603Z,13.70
2022-11-19T15:07:56.131Z,21.70
2022-11-19T15:18:25.440Z,18.30
2022-11-19T15:28:43.458Z,16.50
2022-11-19T15:38:55.548Z,15.10
2022-11-19T15:49:07.695Z,14.90
2022-11-19T15:59:16.572Z,20.60
2022-11-19T16:09:25.958Z,16.50
2022-11-19T16:19:31.758Z,20.80
2022-11-19T16:29:41.226Z,19.60
2022-11-19T16:39:52.634Z,22.20
2022-11-19T16:50:04.876Z,23.90
2022-11-19T17:00:19.408Z,23.80
2022-11-19T17:10:32.115Z,22.80
2022-11-19T17:21:04.994Z,24.40
2022-11-19T17:31:19.018Z,30.60
2022-11-19T17:41:44.901Z,25.60
2022-11-19T17:51:50.822Z,24.50
2022-11-19T18:01:57.465Z,22.30
2022-11-19T18:12:03.676Z,22.90
2022-11-19T18:22:14.293Z,24.70
2022-11-19T18:32:20.374Z,22.90
2022-11-19T18:42:27.251Z,21.00
2022-11-19T18:52:33.374Z,25.10
2022-11-19T19:02:39.393Z,22.50
2022-11-19T19:22:49.396Z,25.80
2022-11-19T19:32:55.171Z,23.80
2022-11-19T19:43:03.286Z,27.10
2022-11-19T19:53:10.543Z,25.00
2022-11-19T20:03:17.222Z,24.30
2022-11-19T20:13:28.694Z,27.10
2022-11-19T20:23:35.056Z,25.70
2022-11-19T20:33:42.640Z,23.30
2022-11-19T20:44:06.792Z,30.10
2022-11-19T20:54:13.090Z,30.00
2022-11-19T21:04:18.966Z,22.70
2022-11-19T21:24:28.817Z,21.50
2022-11-19T21:34:34.519Z,22.40
2022-11-19T21:44:40.226Z,22.80
2022-11-19T21:54:46.059Z,22.70
2022-11-19T22:04:51.940Z,22.80
2022-11-19T22:25:01.795Z,24.00
2022-11-19T22:35:08.818Z,21.30
2022-11-19T22:45:14.891Z,25.10
2022-11-19T22:55:21.121Z,28.60
2022-11-19T23:15:31.024Z,21.80
2022-11-19T23:25:36.696Z,21.40
2022-11-19T23:35:42.471Z,22.80
2022-11-19T23:45:48.122Z,23.30
2022-11-19T23:55:53.916Z,22.80
